createdAt,value
2017-11-22T00:00:33.741Z,89.98
2017-11-22T00:01:36.304Z,90.18
2017-11-22T00:02:39.242Z,90.35
2017-11-22T00:03:41.758Z,89.22
2017-11-22T00:04:44.428Z,90.06
2017-11-22T00:05:46.953Z,89.91
2017-11-22T00:06:49.551Z,90.70
2017-11-22T00:07:52.087Z,89.94
2017-11-22T00:08:55.092Z,89.68
2017-11-22T00:09:57.623Z,89.72
2017-11-22T00:11:00.273Z,89.76
2017-11-22T00:12:02.863Z,90.45
2017-11-22T00:13:05.476Z,90.26
2017-11-22T00:14:07.999Z,90.35
2017-11-22T00:15:11.109Z,90.29
2017-11-22T00:16:13.642Z,90.41
2017-11-22T00:17:16.237Z,90.11
2017-11-22T00:18:18.766Z,89.99
2017-11-22T00:19:21.320Z,89.41
2017-11-22T00:20:23.847Z,89.22
2017-11-22T00:21:26.877Z,89.54
2017-11-22T00:22:29.383Z,89.74
2017-11-22T00:23:31.918Z,89.46
2017-11-22T00:24:34.470Z,89.42
2017-11-22T00:25:37.063Z,89.68
2017-11-22T00:26:39.582Z,90.05
2017-11-22T00:27:42.509Z,89.33
2017-11-22T00:28:45.035Z,89.69
2017-11-22T00:29:47.604Z,89.61
2017-11-22T00:30:50.176Z,89.61
2017-11-22T00:31:52.703Z,89.79
2017-11-22T00:32:55.252Z,90.15
2017-11-22T00:33:58.287Z,89.53
2017-11-22T00:35:00.856Z,89.51
2017-11-22T00:36:03.433Z,89.75
2017-11-22T00:37:05.965Z,89.77
2017-11-22T00:38:08.498Z,89.50
2017-11-22T00:39:11.053Z,89.56
2017-11-22T00:40:13.952Z,89.83
2017-11-22T00:41:16.518Z,89.62
2017-11-22T00:42:19.050Z,89.45
2017-11-22T00:43:21.669Z,89.68
2017-11-22T00:44:24.237Z,89.17
2017-11-22T00:45:26.759Z,89.62
2017-11-22T00:46:29.741Z,89.96
2017-11-22T00:47:32.281Z,89.77
2017-11-22T00:48:34.844Z,90.00
2017-11-22T00:49:37.397Z,89.75
2017-11-22T00:50:39.950Z,89.29
2017-11-22T00:51:42.506Z,89.93
2017-11-22T00:52:45.589Z,90.30
2017-11-22T00:53:48.104Z,90.16
2017-11-22T00:54:50.668Z,90.51
2017-11-22T00:55:53.280Z,90.40
2017-11-22T00:56:55.824Z,90.58
2017-11-22T00:57:58.347Z,90.80
2017-11-22T00:59:01.366Z,90.17
2017-11-22T01:00:04.018Z,90.30
2017-11-22T01:01:06.576Z,90.31
2017-11-22T01:02:09.113Z,90.43
2017-11-22T01:03:12.830Z,90.06
2017-11-22T01:04:15.639Z,90.33
2017-11-22T01:05:18.658Z,90.50
2017-11-22T01:06:21.227Z,89.88
2017-11-22T01:07:23.762Z,90.80
2017-11-22T01:08:26.432Z,90.24
2017-11-22T01:09:29.008Z,90.36
2017-11-22T01:10:31.626Z,89.82
2017-11-22T01:11:34.612Z,89.76
2017-11-22T01:12:37.121Z,90.10
2017-11-22T01:13:39.688Z,89.96
2017-11-22T01:14:42.335Z,89.62
2017-11-22T01:15:44.874Z,89.74
2017-11-22T01:16:47.399Z,90.22
2017-11-22T01:17:50.429Z,90.13
2017-11-22T01:18:53.050Z,90.00
2017-11-22T01:19:55.627Z,89.71
2017-11-22T01:20:58.209Z,89.71
2017-11-22T01:22:00.870Z,90.09
2017-11-22T01:23:03.509Z,89.94
2017-11-22T01:24:06.407Z,90.37
2017-11-22T01:25:08.997Z,89.75
2017-11-22T01:26:11.559Z,89.28
2017-11-22T01:27:14.173Z,89.23
2017-11-22T01:28:16.726Z,90.03
2017-11-22T01:29:19.311Z,90.24
2017-11-22T01:30:22.239Z,89.65
2017-11-22T01:31:24.860Z,89.10
2017-11-22T01:32:27.412Z,89.11
2017-11-22T01:33:29.967Z,89.48
2017-11-22T01:34:32.533Z,89.84
2017-11-22T01:35:35.121Z,89.16
2017-11-22T01:36:38.035Z,89.83
2017-11-22T01:37:40.583Z,89.86
2017-11-22T01:38:43.102Z,89.36
2017-11-22T01:39:45.661Z,89.13
2017-11-22T01:40:48.265Z,89.52
2017-11-22T01:41:51.159Z,89.79
2017-11-22T01:42:53.903Z,89.70
2017-11-22T01:43:56.454Z,89.46
2017-11-22T01:44:59.190Z,89.49
2017-11-22T01:46:01.784Z,89.60
2017-11-22T01:47:04.357Z,89.16
2017-11-22T01:48:07.356Z,89.25
2017-11-22T01:49:09.840Z,89.64
2017-11-22T01:50:12.347Z,89.61
2017-11-22T01:51:14.818Z,89.41
2017-11-22T01:52:17.339Z,89.68
2017-11-22T01:53:19.883Z,88.92
2017-11-22T01:54:22.761Z,89.86
2017-11-22T01:55:25.259Z,89.99
2017-11-22T01:56:27.815Z,89.23
2017-11-22T01:57:30.356Z,88.98
2017-11-22T01:58:32.898Z,89.59
2017-11-22T01:59:35.453Z,89.56
2017-11-22T02:00:38.433Z,89.12
2017-11-22T02:01:40.965Z,89.60
2017-11-22T02:02:43.498Z,89.48
2017-11-22T05:15:21.746Z,86.04
2017-11-22T05:16:24.314Z,85.97
2017-11-22T05:18:45.928Z,85.22
2017-11-22T05:19:48.474Z,85.56
2017-11-22T05:20:51.480Z,86.67
2017-11-22T05:21:54.473Z,86.68
2017-11-22T05:22:57.067Z,86.22
2017-11-22T05:23:59.640Z,86.25
2017-11-22T05:25:02.232Z,85.58
2017-11-22T05:26:05.398Z,85.86
2017-11-22T05:27:08.381Z,86.70
2017-11-22T05:28:10.932Z,85.85
2017-11-22T05:29:13.474Z,86.11
2017-11-22T05:30:16.050Z,86.55
2017-11-22T05:31:18.724Z,86.13
2017-11-22T05:32:21.302Z,85.42
2017-11-22T05:33:24.397Z,86.08
2017-11-22T05:34:26.962Z,86.33
2017-11-22T05:35:29.531Z,85.66
2017-11-22T05:36:32.078Z,86.00
2017-11-22T05:37:34.656Z,85.00
2017-11-22T05:38:37.650Z,85.60
2017-11-22T05:39:40.595Z,84.98
2017-11-22T05:40:43.209Z,85.88
2017-11-22T05:41:45.807Z,85.86
2017-11-22T05:42:48.483Z,85.39
2017-11-22T05:43:51.071Z,86.18
2017-11-22T05:44:53.652Z,85.39
2017-11-22T05:45:56.614Z,86.42
2017-11-22T05:46:59.200Z,85.56
2017-11-22T05:48:01.831Z,85.44
2017-11-22T05:49:04.431Z,84.56
2017-11-22T05:50:06.996Z,84.54
2017-11-22T05:51:09.583Z,84.91
2017-11-22T05:52:12.580Z,84.41
2017-11-22T05:53:15.256Z,84.39
2017-11-22T05:54:17.872Z,84.65
2017-11-22T05:55:20.520Z,85.28
2017-11-22T05:56:23.079Z,84.87
2017-11-22T05:57:25.702Z,84.45
2017-11-22T05:58:28.618Z,84.35
2017-11-22T05:59:31.233Z,83.95
2017-11-22T06:00:38.708Z,83.69
2017-11-22T06:01:41.294Z,84.46
2017-11-22T06:02:43.881Z,85.23
2017-11-22T06:03:46.458Z,85.48
2017-11-22T06:04:49.569Z,84.40
2017-11-22T06:05:52.165Z,85.21
2017-11-22T06:06:54.775Z,85.50
2017-11-22T06:07:57.350Z,84.96
2017-11-22T06:09:00.006Z,84.93
2017-11-22T06:10:02.594Z,84.60
2017-11-22T06:11:05.760Z,84.78
2017-11-22T06:12:08.372Z,85.26
2017-11-22T06:13:11.019Z,85.50
2017-11-22T06:14:13.602Z,85.82
2017-11-22T06:15:16.161Z,86.08
2017-11-22T06:16:19.114Z,85.67
2017-11-22T06:17:21.742Z,85.69
2017-11-22T06:18:24.320Z,85.81
2017-11-22T06:19:26.898Z,85.91
2017-11-22T06:20:29.470Z,86.16
2017-11-22T06:21:32.115Z,85.98
2017-11-22T06:22:35.067Z,84.88
2017-11-22T06:23:37.637Z,84.69
2017-11-22T06:24:40.205Z,85.55
2017-11-22T06:25:42.858Z,85.26
2017-11-22T06:26:45.452Z,85.70
2017-11-22T06:27:48.048Z,86.32
2017-11-22T06:28:51.065Z,86.20
2017-11-22T06:29:58.477Z,85.87
2017-11-22T06:31:01.110Z,86.49
2017-11-22T06:32:03.767Z,85.72
2017-11-22T06:33:06.349Z,85.67
2017-11-22T06:34:08.963Z,85.60
2017-11-22T06:35:12.030Z,85.72
2017-11-22T06:36:14.591Z,86.01
2017-11-22T06:37:17.191Z,86.06
2017-11-22T06:38:19.821Z,85.81
2017-11-22T06:39:25.230Z,85.38
2017-11-22T06:40:27.816Z,85.52
2017-11-22T06:41:30.624Z,85.56
2017-11-22T06:42:33.202Z,85.62
2017-11-22T06:43:35.678Z,86.14
2017-11-22T06:44:38.147Z,86.33
2017-11-22T06:45:40.782Z,85.93
2017-11-22T06:46:43.351Z,86.10
2017-11-22T06:47:46.401Z,86.24
2017-11-22T06:48:48.995Z,86.21
2017-11-22T06:49:51.616Z,86.29
2017-11-22T06:50:54.210Z,85.80
2017-11-22T06:51:56.898Z,86.05
2017-11-22T06:52:59.506Z,86.41
2017-11-22T06:54:02.518Z,85.99
2017-11-22T06:55:05.647Z,85.52
2017-11-22T06:56:08.323Z,85.65
2017-11-22T06:57:11.074Z,85.85
2017-11-22T06:58:13.814Z,86.04
2017-11-22T06:59:16.504Z,85.86
2017-11-22T07:00:19.181Z,86.05
2017-11-22T07:01:21.834Z,85.76
2017-11-22T07:02:29.438Z,85.99
2017-11-22T07:04:02.705Z,85.73
2017-11-22T07:05:06.003Z,86.32
2017-11-22T07:06:08.587Z,86.15
2017-11-22T07:07:11.169Z,86.38
2017-11-22T07:08:13.802Z,85.91
2017-11-22T07:09:16.627Z,86.15
2017-11-22T07:10:19.283Z,86.36
2017-11-22T07:11:22.294Z,86.27
2017-11-22T07:12:24.997Z,86.15
2017-11-22T07:13:27.628Z,86.49
2017-11-22T07:14:30.354Z,86.15
2017-11-22T07:15:33.070Z,85.04
2017-11-22T07:17:43.143Z,85.54
2017-11-22T07:18:45.960Z,86.13
2017-11-22T07:19:48.667Z,86.20
2017-11-22T07:20:51.267Z,86.05
2017-11-22T07:21:54.009Z,85.95
2017-11-22T07:22:56.703Z,86.38
2017-11-22T07:24:00.156Z,85.63
2017-11-22T07:25:03.783Z,86.14
2017-11-22T07:26:06.807Z,86.30
2017-11-22T07:27:09.519Z,86.43
2017-11-22T07:28:12.479Z,86.36
2017-11-22T07:29:15.174Z,86.27
2017-11-22T07:30:18.405Z,85.82
2017-11-22T07:31:21.092Z,85.75
2017-11-22T07:32:24.474Z,86.04
2017-11-22T07:33:27.095Z,86.04
2017-11-22T07:34:29.800Z,85.92
2017-11-22T07:35:37.318Z,85.45
2017-11-22T07:36:45.806Z,85.49
2017-11-22T07:38:02.758Z,85.94
2017-11-22T07:39:05.426Z,86.19
2017-11-22T07:40:08.083Z,85.27
2017-11-22T07:41:10.751Z,85.37
2017-11-22T07:42:13.847Z,85.63
2017-11-22T07:43:16.479Z,85.71
2017-11-22T07:44:19.142Z,85.62
2017-11-22T07:45:21.813Z,85.75
2017-11-22T07:46:27.432Z,85.44
2017-11-22T07:47:30.139Z,85.71
2017-11-22T07:48:33.170Z,85.56
2017-11-22T07:49:35.875Z,85.49
2017-11-22T07:50:38.499Z,85.44
2017-11-22T07:51:46.109Z,85.20
2017-11-22T07:52:48.771Z,85.18
2017-11-22T07:53:51.440Z,85.04
2017-11-22T07:54:54.513Z,85.16
2017-11-22T07:55:59.854Z,85.29
2017-11-22T07:57:06.273Z,84.94
2017-11-22T07:58:08.879Z,85.05
2017-11-22T07:59:12.470Z,85.17
2017-11-22T08:00:15.149Z,85.09
2017-11-22T08:01:18.376Z,85.29
2017-11-22T08:02:21.209Z,85.09
2017-11-22T08:03:23.968Z,85.34
2017-11-22T08:04:28.684Z,84.55
2017-11-22T08:05:31.477Z,84.65
2017-11-22T08:06:34.187Z,84.34
2017-11-22T08:07:37.348Z,84.82
2017-11-22T08:08:40.027Z,84.84
2017-11-22T08:09:42.684Z,85.08
2017-11-22T08:10:45.396Z,84.94
2017-11-22T08:11:48.061Z,85.09
2017-11-22T08:12:51.492Z,85.24
2017-11-22T08:13:54.114Z,84.98
2017-11-22T08:14:56.734Z,84.41
2017-11-22T08:15:59.387Z,84.42
2017-11-22T08:17:02.844Z,84.54
2017-11-22T08:18:05.546Z,84.55
2017-11-22T08:19:08.520Z,84.13
2017-11-22T08:20:13.183Z,84.81
2017-11-22T08:21:15.845Z,84.25
2017-11-22T08:22:19.405Z,84.08
2017-11-22T08:23:22.097Z,84.19
2017-11-22T08:24:25.454Z,84.21
2017-11-22T08:25:30.292Z,84.62
2017-11-22T08:26:33.720Z,83.95
2017-11-22T08:27:36.320Z,84.09
2017-11-22T08:28:39.405Z,83.79
2017-11-22T08:29:42.154Z,84.31
2017-11-22T08:30:44.851Z,84.03
2017-11-22T08:31:48.061Z,84.07
2017-11-22T08:32:50.706Z,84.26
2017-11-22T08:33:53.420Z,83.64
2017-11-22T08:34:56.072Z,83.98
2017-11-22T08:35:58.692Z,83.94
2017-11-22T08:37:01.585Z,83.35
2017-11-22T08:38:04.531Z,83.43
2017-11-22T08:39:07.158Z,83.50
2017-11-22T08:40:09.873Z,83.68
2017-11-22T08:41:12.564Z,83.75
2017-11-22T08:42:16.232Z,83.68
2017-11-22T08:43:23.844Z,82.92
2017-11-22T08:44:26.980Z,83.65
2017-11-22T08:45:29.670Z,83.52
2017-11-22T08:46:32.754Z,83.48
2017-11-22T08:47:35.512Z,83.55
2017-11-22T08:48:38.480Z,83.65
2017-11-22T08:49:41.056Z,83.28
2017-11-22T08:50:44.430Z,82.95
2017-11-22T08:51:46.982Z,83.25
2017-11-22T08:52:49.571Z,83.02
2017-11-22T08:53:52.152Z,82.28
2017-11-22T08:54:59.698Z,82.10
2017-11-22T08:56:07.188Z,82.07
2017-11-22T08:57:15.271Z,82.09
2017-11-22T08:58:17.989Z,82.04
2017-11-22T08:59:20.660Z,82.54
2017-11-22T09:00:23.428Z,82.38
2017-11-22T09:01:27.099Z,82.31
2017-11-22T09:02:29.839Z,82.31
2017-11-22T09:03:37.860Z,82.27
2017-11-22T09:04:40.548Z,82.44
2017-11-22T09:05:49.443Z,82.56
2017-11-22T09:06:53.959Z,82.25
2017-11-22T09:07:58.615Z,82.19
2017-11-22T09:09:01.356Z,82.19
2017-11-22T09:10:04.478Z,82.12
2017-11-22T09:11:07.153Z,82.05
2017-11-22T09:12:11.621Z,82.10
2017-11-22T09:13:31.740Z,81.95
2017-11-22T09:14:34.472Z,82.03
2017-11-22T09:15:37.286Z,81.82
2017-11-22T09:16:40.336Z,81.87
2017-11-22T09:17:43.162Z,81.70
2017-11-22T09:19:00.312Z,81.40
2017-11-22T09:20:06.915Z,81.75
2017-11-22T09:21:10.559Z,81.94
2017-11-22T09:22:13.298Z,81.86
2017-11-22T09:23:16.437Z,81.60
2017-11-22T09:25:06.666Z,81.28
2017-11-22T09:26:09.414Z,81.34
2017-11-22T09:27:17.014Z,81.38
2017-11-22T09:28:19.560Z,81.40
2017-11-22T09:29:22.176Z,80.80
2017-11-22T09:30:24.888Z,81.18
2017-11-22T09:31:32.531Z,81.75
2017-11-22T09:32:35.528Z,81.31
2017-11-22T09:33:38.165Z,81.07
2017-11-22T09:34:46.234Z,81.07
2017-11-22T09:35:48.981Z,81.49
2017-11-22T09:36:51.663Z,81.02
2017-11-22T09:37:54.377Z,80.68
2017-11-22T09:38:57.041Z,81.33
2017-11-22T09:39:59.774Z,80.56
2017-11-22T09:41:02.889Z,80.72
2017-11-22T09:42:05.560Z,79.88
2017-11-22T09:43:08.233Z,79.78
2017-11-22T09:44:10.938Z,79.58
2017-11-22T09:45:15.132Z,79.57
2017-11-22T09:46:17.908Z,78.53
2017-11-22T09:47:21.038Z,78.73
2017-11-22T09:48:24.338Z,79.12
2017-11-22T09:49:27.066Z,79.43
2017-11-22T09:50:29.724Z,79.26
2017-11-22T09:51:32.490Z,79.28
2017-11-22T09:52:35.177Z,79.55
2017-11-22T09:53:38.359Z,78.50
2017-11-22T09:54:41.019Z,77.85
2017-11-22T09:55:43.727Z,78.08
2017-11-22T09:56:46.561Z,76.47
2017-11-22T09:57:49.241Z,77.53
2017-11-22T09:58:51.914Z,76.87
2017-11-22T09:59:54.980Z,77.00
2017-11-22T10:00:57.740Z,77.47
2017-11-22T10:02:00.436Z,76.92
2017-11-22T10:03:03.169Z,77.26
2017-11-22T10:04:05.843Z,77.02
2017-11-22T10:05:08.531Z,76.09
2017-11-22T10:06:11.211Z,76.99
2017-11-22T10:07:13.779Z,77.03
2017-11-22T10:08:17.328Z,75.73
2017-11-22T10:09:20.008Z,76.27
2017-11-22T10:10:22.768Z,76.58
2017-11-22T10:11:25.964Z,73.89
2017-11-22T10:12:28.641Z,72.06
2017-11-22T10:13:31.355Z,73.09
2017-11-22T10:14:34.032Z,74.11
2017-11-22T10:15:36.701Z,71.29
2017-11-22T10:16:39.496Z,68.88
2017-11-22T10:17:42.302Z,67.20
2017-11-22T10:18:47.466Z,63.42
2017-11-22T10:19:54.104Z,63.75
2017-11-22T10:20:56.840Z,64.01
2017-11-22T10:22:03.869Z,64.86
2017-11-22T10:23:11.031Z,64.49
2017-11-22T10:24:17.815Z,60.41
2017-11-22T10:25:20.628Z,58.18
2017-11-22T10:26:27.292Z,58.39
2017-11-22T10:27:30.148Z,62.00
2017-11-22T10:28:33.029Z,64.87
2017-11-22T10:29:39.748Z,64.53
2017-11-22T10:30:43.120Z,62.45
2017-11-22T10:31:46.610Z,63.53
2017-11-22T10:32:50.308Z,67.75
2017-11-22T10:33:53.061Z,68.34
2017-11-22T10:34:56.153Z,65.09
2017-11-22T10:35:58.989Z,65.41
2017-11-22T10:37:01.807Z,66.91
2017-11-22T10:38:04.528Z,66.70
2017-11-22T10:39:07.371Z,65.05
2017-11-22T10:40:10.092Z,66.16
2017-11-22T10:41:13.210Z,67.00
2017-11-22T10:42:16.010Z,66.71
2017-11-22T10:43:19.594Z,64.47
2017-11-22T10:44:22.266Z,63.90
2017-11-22T10:45:24.909Z,66.10
2017-11-22T10:46:27.568Z,66.74
2017-11-22T10:47:30.349Z,65.39
2017-11-22T10:48:32.970Z,63.59
2017-11-22T10:49:35.597Z,66.00
2017-11-22T10:50:38.405Z,63.62
2017-11-22T10:51:41.116Z,61.92
2017-11-22T10:52:43.760Z,63.41
2017-11-22T10:53:46.435Z,63.20
2017-11-22T10:54:49.147Z,62.95
2017-11-22T10:55:51.775Z,63.14
2017-11-22T10:56:54.486Z,65.77
2017-11-22T10:57:57.522Z,63.74
2017-11-22T10:59:00.247Z,63.25
2017-11-22T11:15:38.225Z,64.43
2017-11-22T11:16:40.923Z,62.82
2017-11-22T11:17:43.643Z,62.26
2017-11-22T11:18:46.394Z,61.75
2017-11-22T11:19:49.113Z,59.63
2017-11-22T11:20:51.827Z,57.94
2017-11-22T11:21:54.560Z,57.89
2017-11-22T11:22:57.362Z,57.62
2017-11-22T11:24:00.105Z,56.36
2017-11-22T11:25:03.418Z,57.27
2017-11-22T11:26:06.503Z,55.39
2017-11-22T11:27:09.249Z,56.18
2017-11-22T11:28:11.916Z,57.83
2017-11-22T11:29:14.805Z,59.57
2017-11-22T11:30:17.459Z,60.33
2017-11-22T11:31:20.253Z,59.29
2017-11-22T11:32:24.047Z,60.34
2017-11-22T11:33:27.100Z,60.93
2017-11-22T11:34:30.090Z,61.52
2017-11-22T11:35:32.811Z,62.29
2017-11-22T11:36:35.492Z,62.55
2017-11-22T11:37:38.138Z,64.48
2017-11-22T11:38:41.280Z,65.48
2017-11-22T11:39:44.008Z,64.19
2017-11-22T11:40:46.756Z,64.17
2017-11-22T11:41:49.409Z,65.53
2017-11-22T11:42:52.076Z,65.45
2017-11-22T11:43:54.730Z,66.44
2017-11-22T11:44:57.671Z,66.01
2017-11-22T11:46:00.259Z,65.61
2017-11-22T11:47:03.222Z,64.43
2017-11-22T11:48:05.977Z,63.50
2017-11-22T11:49:08.635Z,64.92
2017-11-22T11:50:11.299Z,65.34
2017-11-22T11:51:14.528Z,63.84
2017-11-22T11:52:17.329Z,63.05
2017-11-22T11:53:20.125Z,62.02
2017-11-22T11:54:22.848Z,61.51
2017-11-22T11:55:26.548Z,61.23
2017-11-22T11:56:29.441Z,61.00
2017-11-22T11:57:32.618Z,59.62
2017-11-22T11:58:35.331Z,59.76
2017-11-22T11:59:38.045Z,59.11
2017-11-22T12:00:41.019Z,58.97
2017-11-22T12:01:43.729Z,57.61
2017-11-22T12:02:46.530Z,56.43
2017-11-22T12:03:49.618Z,55.90
2017-11-22T12:04:52.321Z,56.09
2017-11-22T12:05:54.984Z,56.94
2017-11-22T12:06:57.693Z,56.77
2017-11-22T12:08:00.750Z,54.98
2017-11-22T12:09:03.497Z,52.87
2017-11-22T12:10:06.662Z,52.45
2017-11-22T12:11:12.348Z,50.36
2017-11-22T12:12:15.048Z,50.34
2017-11-22T12:13:17.722Z,50.14
2017-11-22T12:14:20.379Z,50.69
2017-11-22T12:15:22.992Z,50.71
2017-11-22T12:16:26.065Z,52.14
2017-11-22T12:17:28.717Z,51.48
2017-11-22T12:18:31.447Z,52.29
2017-11-22T12:19:34.117Z,51.23
2017-11-22T12:20:36.876Z,50.75
2017-11-22T12:24:56.159Z,55.37
2017-11-22T12:25:58.961Z,48.01
2017-11-22T12:27:01.764Z,46.01
2017-11-22T12:28:12.510Z,46.95
2017-11-22T12:29:15.785Z,47.61
2017-11-22T12:30:18.513Z,43.78
2017-11-22T12:31:21.559Z,42.23
2017-11-22T12:32:24.271Z,43.20
2017-11-22T12:33:26.925Z,43.07
2017-11-22T12:34:29.666Z,45.89
2017-11-22T12:35:32.333Z,46.65
2017-11-22T12:36:35.089Z,44.57
2017-11-22T12:37:38.175Z,43.63
2017-11-22T12:38:41.038Z,42.48
2017-11-22T12:39:43.782Z,43.48
2017-11-22T12:40:46.525Z,42.64
2017-11-22T12:41:49.187Z,42.42
2017-11-22T12:42:51.884Z,44.13
2017-11-22T12:43:56.117Z,44.44
2017-11-22T12:44:58.756Z,42.89
2017-11-22T12:46:01.757Z,41.01
2017-11-22T12:47:04.387Z,40.74
2017-11-22T12:48:07.153Z,42.01
2017-11-22T12:49:09.773Z,39.34
2017-11-22T12:50:12.492Z,40.46
2017-11-22T12:51:15.130Z,41.27
2017-11-22T12:52:18.022Z,41.50
2017-11-22T12:53:20.707Z,42.64
2017-11-22T12:54:23.560Z,42.66
2017-11-22T12:55:26.538Z,44.22
2017-11-22T12:56:29.248Z,45.87
2017-11-22T12:57:42.896Z,46.72
2017-11-22T12:58:45.628Z,44.61
2017-11-22T12:59:48.352Z,42.97
2017-11-22T13:00:51.024Z,44.96
2017-11-22T13:01:54.296Z,43.54
2017-11-22T13:02:56.945Z,42.43
2017-11-22T13:03:59.634Z,41.14
2017-11-22T13:05:02.347Z,42.94
2017-11-22T13:06:05.045Z,43.17
2017-11-22T13:07:07.735Z,43.21
2017-11-22T13:08:10.667Z,43.53
2017-11-22T13:09:13.357Z,41.41
2017-11-22T13:13:36.758Z,41.58
2017-11-22T13:14:39.434Z,39.37
2017-11-22T13:15:42.096Z,42.16
2017-11-22T13:16:44.788Z,41.79
2017-11-22T13:17:47.552Z,40.94
2017-11-22T13:18:50.277Z,39.65
2017-11-22T13:19:53.396Z,38.07
2017-11-22T13:20:56.121Z,37.94
2017-11-22T13:21:58.829Z,41.10
2017-11-22T13:23:01.627Z,40.80
2017-11-22T13:24:05.201Z,39.88
2017-11-22T13:25:07.965Z,39.18
2017-11-22T13:26:11.126Z,38.29
2017-11-22T13:27:22.361Z,38.21
2017-11-22T13:28:25.081Z,38.21
2017-11-22T13:29:27.757Z,37.89
2017-11-22T13:30:30.470Z,36.23
2017-11-22T13:31:33.193Z,36.85
2017-11-22T13:32:42.407Z,36.82
2017-11-22T13:33:45.094Z,39.05
2017-11-22T13:34:47.828Z,40.27
2017-11-22T13:35:50.504Z,38.25
2017-11-22T13:36:53.257Z,36.56
2017-11-22T13:37:56.052Z,35.99
2017-11-22T13:38:59.295Z,37.30
2017-11-22T13:40:02.063Z,41.47
2017-11-22T13:41:04.842Z,45.56
2017-11-22T13:42:07.696Z,46.58
2017-11-22T13:43:10.664Z,46.40
2017-11-22T13:44:13.496Z,44.44
2017-11-22T13:45:16.579Z,43.80
2017-11-22T13:46:19.288Z,43.93
2017-11-22T13:47:21.966Z,44.72
2017-11-22T13:48:24.706Z,44.79
2017-11-22T13:49:27.465Z,42.56
2017-11-22T13:50:30.663Z,42.49
2017-11-22T13:51:34.004Z,42.83
2017-11-22T13:52:36.734Z,43.75
2017-11-22T13:53:39.518Z,43.71
2017-11-22T13:54:42.203Z,44.11
2017-11-22T13:55:45.806Z,45.25
2017-11-22T13:56:48.576Z,43.55
2017-11-22T13:57:52.444Z,44.51
2017-11-22T13:58:55.668Z,45.61
2017-11-22T13:59:58.721Z,44.54
2017-11-22T14:01:01.925Z,43.62
2017-11-22T14:02:05.550Z,42.42
2017-11-22T14:03:09.844Z,41.85
2017-11-22T14:04:13.736Z,42.65
2017-11-22T14:05:16.941Z,42.58
2017-11-22T14:06:19.820Z,43.24
2017-11-22T14:07:22.595Z,42.95
2017-11-22T14:08:25.383Z,46.02
2017-11-22T14:09:28.118Z,44.39
2017-11-22T14:10:31.425Z,45.43
2017-11-22T14:11:34.792Z,47.39
2017-11-22T14:12:38.682Z,47.13
2017-11-22T14:13:41.412Z,48.94
2017-11-22T14:14:45.493Z,47.67
2017-11-22T14:15:51.526Z,47.23
2017-11-22T14:16:56.402Z,47.02
2017-11-22T14:17:59.184Z,46.51
2017-11-22T14:19:02.705Z,47.15
2017-11-22T14:20:05.903Z,47.89
2017-11-22T14:21:09.406Z,46.39
2017-11-22T14:22:13.790Z,46.61
2017-11-22T14:23:17.139Z,44.23
2017-11-22T14:24:20.574Z,45.14
2017-11-22T14:25:23.418Z,48.43
2017-11-22T14:26:27.151Z,47.29
2017-11-22T14:27:31.048Z,48.21
2017-11-22T14:28:33.768Z,48.75
2017-11-22T14:29:37.098Z,46.46
2017-11-22T14:30:41.012Z,45.98
2017-11-22T14:31:44.438Z,43.90
2017-11-22T14:32:47.591Z,43.50
2017-11-22T14:33:51.242Z,43.22
2017-11-22T14:34:55.757Z,43.13
2017-11-22T14:35:58.984Z,44.06
2017-11-22T14:37:01.837Z,44.33
2017-11-22T14:38:04.491Z,44.24
2017-11-22T14:39:07.282Z,41.99
2017-11-22T14:40:09.853Z,41.33
2017-11-22T14:41:13.026Z,41.10
2017-11-22T14:42:16.094Z,40.95
2017-11-22T14:43:19.005Z,41.96
2017-11-22T14:44:22.007Z,41.28
2017-11-22T14:45:25.476Z,41.38
2017-11-22T14:46:29.113Z,42.80
2017-11-22T14:47:32.102Z,42.50
2017-11-22T14:48:35.260Z,41.89
2017-11-22T14:49:38.427Z,42.91
2017-11-22T14:50:41.675Z,45.31
2017-11-22T14:51:44.562Z,44.22
2017-11-22T14:52:47.935Z,43.98
2017-11-22T14:53:51.092Z,44.80
2017-11-22T14:54:55.536Z,44.67
2017-11-22T14:56:00.121Z,46.01
2017-11-22T14:57:03.416Z,45.98
2017-11-22T14:58:06.475Z,44.42
2017-11-22T14:59:10.188Z,46.99
2017-11-22T15:00:14.277Z,48.19
2017-11-22T15:01:18.077Z,50.80
2017-11-22T15:02:22.079Z,52.21
2017-11-22T15:03:25.154Z,51.29
2017-11-22T15:04:28.158Z,52.84
2017-11-22T15:05:32.367Z,51.29
2017-11-22T15:06:36.062Z,53.09
2017-11-22T15:07:39.568Z,53.09
2017-11-22T15:08:43.418Z,55.12
2017-11-22T15:09:46.936Z,56.38
2017-11-22T15:10:50.907Z,59.02
2017-11-22T15:11:53.637Z,60.99
2017-11-22T15:12:56.428Z,63.07
2017-11-22T15:14:00.062Z,64.70
2017-11-22T15:18:44.891Z,65.10
2017-11-22T15:19:49.259Z,65.71
2017-11-22T15:20:53.661Z,66.30
2017-11-22T15:21:56.463Z,65.73
2017-11-22T15:22:59.424Z,65.18
2017-11-22T15:24:03.444Z,64.89
2017-11-22T15:25:06.582Z,66.02
2017-11-22T15:26:12.225Z,66.74
2017-11-22T15:27:15.859Z,66.32
2017-11-22T15:28:19.119Z,66.02
2017-11-22T15:29:22.713Z,66.53
2017-11-22T15:30:26.310Z,66.55
2017-11-22T15:31:34.874Z,66.04
2017-11-22T15:32:39.255Z,65.93
2017-11-22T15:33:44.943Z,66.20
2017-11-22T15:34:49.162Z,66.26
2017-11-22T15:35:53.219Z,67.06
2017-11-22T15:36:58.699Z,67.06
2017-11-22T15:38:04.392Z,67.40
2017-11-22T15:39:07.767Z,67.52
2017-11-22T15:40:12.590Z,67.65
2017-11-22T15:41:15.718Z,68.82
2017-11-22T15:42:21.469Z,68.95
2017-11-22T15:43:26.254Z,69.31
2017-11-22T15:44:30.505Z,69.83
2017-11-22T15:45:35.256Z,69.76
2017-11-22T15:46:39.607Z,70.18
2017-11-22T15:47:44.767Z,70.56
2017-11-22T15:48:49.290Z,71.26
2017-11-22T15:49:54.772Z,71.49
2017-11-22T15:51:02.282Z,71.53
2017-11-22T15:52:07.093Z,71.66
2017-11-22T15:53:11.868Z,72.19
2017-11-22T15:54:16.513Z,71.69
2017-11-22T15:55:22.028Z,71.86
2017-11-22T15:56:27.563Z,70.97
2017-11-22T15:57:32.653Z,70.95
2017-11-22T15:58:36.291Z,71.40
2017-11-22T15:59:41.822Z,71.18
2017-11-22T16:00:45.918Z,71.54
2017-11-22T16:01:51.280Z,71.98
2017-11-22T16:02:56.729Z,72.22
2017-11-22T16:04:02.033Z,72.06
2017-11-22T16:05:06.502Z,71.99
2017-11-22T16:06:11.159Z,72.33
2017-11-22T16:07:15.057Z,72.11
2017-11-22T16:08:19.577Z,71.71
2017-11-22T16:09:24.359Z,72.23
2017-11-22T16:10:29.014Z,72.24
2017-11-22T16:11:34.441Z,72.06
2017-11-22T16:12:39.632Z,71.81
2017-11-22T16:13:44.157Z,72.37
2017-11-22T16:14:48.531Z,71.90
2017-11-22T16:16:01.873Z,72.70
2017-11-22T16:17:06.894Z,72.47
2017-11-22T16:18:11.527Z,72.11
2017-11-22T16:19:17.213Z,72.07
2017-11-22T16:20:21.607Z,71.74
2017-11-22T16:21:26.283Z,71.62
2017-11-22T16:22:31.257Z,71.87
2017-11-22T16:23:35.704Z,71.93
2017-11-22T16:24:41.080Z,71.78
2017-11-22T16:25:46.733Z,72.31
2017-11-22T16:26:51.769Z,72.48
2017-11-22T16:27:56.671Z,73.22
2017-11-22T16:29:03.896Z,72.81
2017-11-22T16:30:10.408Z,73.22
2017-11-22T16:31:15.611Z,73.59
2017-11-22T16:32:20.416Z,73.80
2017-11-22T16:33:25.314Z,74.01
2017-11-22T16:34:30.048Z,73.05
2017-11-22T16:35:35.127Z,72.84
2017-11-22T16:36:39.575Z,72.69
2017-11-22T16:37:44.391Z,72.43
2017-11-22T16:38:51.611Z,72.61
2017-11-22T16:39:56.508Z,72.62
2017-11-22T16:41:01.267Z,72.90
2017-11-22T16:42:08.510Z,73.18
2017-11-22T16:43:13.110Z,73.27
2017-11-22T17:00:57.958Z,75.85
2017-11-22T17:02:03.053Z,75.51
2017-11-22T17:03:08.237Z,76.04
2017-11-22T17:04:13.345Z,76.33
2017-11-22T17:05:18.211Z,76.74
2017-11-22T17:06:24.280Z,77.62
2017-11-22T17:07:29.266Z,77.90
2017-11-22T17:08:34.169Z,78.18
2017-11-22T17:09:39.106Z,79.16
2017-11-22T17:10:44.205Z,79.82
2017-11-22T17:11:49.731Z,80.39
2017-11-22T17:12:55.942Z,81.60
2017-11-22T17:14:01.412Z,81.79
2017-11-22T17:15:06.614Z,81.92
2017-11-22T17:16:11.892Z,82.63
2017-11-22T17:17:18.486Z,82.77
2017-11-22T17:18:26.539Z,82.68
2017-11-22T17:19:32.420Z,83.28
2017-11-22T17:20:37.567Z,84.08
2017-11-22T17:21:43.847Z,84.60
2017-11-22T17:22:49.207Z,84.76
2017-11-22T17:23:58.907Z,84.54
2017-11-22T17:25:04.951Z,84.07
2017-11-22T17:26:10.328Z,84.15
2017-11-22T17:27:17.619Z,84.82
2017-11-22T17:28:22.966Z,86.07
2017-11-22T17:29:28.827Z,85.81
2017-11-22T17:30:34.842Z,85.37
2017-11-22T17:31:40.079Z,85.28
2017-11-22T17:32:46.529Z,85.04
2017-11-22T17:33:56.343Z,85.89
2017-11-22T17:35:02.651Z,85.25